Bookmark and Share
Track history (hours):
 

Shen Hang 935

Last reported at 2014-Apr-17 03:30 UTC. Time now 2014-Apr-17 09:50 UTC.
Position N 22°31' E 113°51'.

Length 49 m; draft 2.6 m.

Type: Ship. MMSI: 412466550.

NotesDate/timePositionNaut miles runAvg speedWind from/ knotsBaromVisibWave heightAir tempDewpointWater temp
2014-Apr-17 03:30N 22°31' E 113°51'1 0.2
2014-Apr-16 21:31N 22°32' E 113°49'32 1.5
2014-Apr-16 00:32N 22°59' E 113°32'5 5.0
2014-Apr-15 23:32N 22°54' E 113°34'3 0.8
2014-Apr-15 20:24N 22°52' E 113°34'42 0.9
2014-Apr-13 22:33N 22°34' E 114°15'0 0.0
2014-Apr-13 21:33N 22°34' E 114°15'0 0.0
2014-Apr-13 20:21N 22°34' E 114°15'0 0.0
2014-Apr-13 19:33N 22°34' E 114°15'0 0.0
2014-Apr-13 18:27N 22°34' E 114°15'0 0.1
2014-Apr-13 17:09N 22°34' E 114°15'0 0.2
2014-Apr-13 16:29N 22°34' E 114°15'17 2.9
2014-Apr-13 10:33N 22°18' E 114°09'15 1.3
2014-Apr-12 22:29N 22°24' E 113°54'6 5.3
2014-Apr-12 21:22N 22°29' E 113°52'4 4.8
2014-Apr-12 20:33N 22°32' E 113°49'9 0.3
2014-Apr-11 15:32N 22°38' E 113°41'0 0.0
2014-Apr-11 06:08N 22°38' E 113°41'13 1.6
2014-Apr-10 22:18N 22°29' E 113°52'6 7.1
2014-Apr-10 21:28N 22°24' E 113°54'12 1.2
2014-Apr-10 11:32N 22°19' E 114°06'4 3.8
2014-Apr-10 10:33N 22°18' E 114°10'17 2.7
2014-Apr-10 04:11N 22°34' E 114°15'0 0.1
2014-Apr-10 03:29N 22°34' E 114°15'0 0.0
2014-Apr-10 02:23N 22°34' E 114°15'0 0.0
2014-Apr-09 19:23N 22°34' E 114°15'17 2.9
2014-Apr-09 13:33N 22°18' E 114°09'1 0.1
2014-Apr-09 03:08N 22°19' E 114°09'1 0.8
2014-Apr-09 02:32N 22°18' E 114°09'1 0.1
2014-Apr-08 21:33N 22°19' E 114°08'1 0.1
2014-Apr-08 13:15N 22°19' E 114°07'0 0.1
2014-Apr-08 09:12N 22°19' E 114°08'0 0.0
2014-Apr-08 05:30N 22°19' E 114°08'0 0.2
2014-Apr-08 04:05N 22°18' E 114°08'0 0.0
2014-Apr-08 03:23N 22°18' E 114°08'0 0.0
2014-Apr-08 02:23N 22°18' E 114°08'0 0.0
2014-Apr-07 22:09N 22°18' E 114°08'0 0.0
2014-Apr-07 09:18N 22°18' E 114°08'0 0.0
2014-Apr-07 08:18N 22°18' E 114°08'1 0.5
2014-Apr-07 06:26N 22°18' E 114°09'1 1.4
2014-Apr-07 05:33N 22°19' E 114°08'  

Dump ship's entire track history

sailing weather and tide predictions

Shen Hang 935 — BXGY — position and weather